createdAt,value
2016-08-15T00:00:08.519Z,14.4
2016-08-15T00:00:18.524Z,14.5
2016-08-15T00:00:28.530Z,14.4
2016-08-15T00:00:38.537Z,14.4
2016-08-15T00:00:48.543Z,14.4
2016-08-15T00:00:58.565Z,14.4
2016-08-15T00:01:08.558Z,14.4
2016-08-15T00:01:18.563Z,14.4
2016-08-15T00:01:28.576Z,14.5
2016-08-15T00:01:38.578Z,14.5
2016-08-15T00:01:48.585Z,14.4
2016-08-15T00:01:58.589Z,14.4
2016-08-15T00:02:08.597Z,14.5
2016-08-15T00:02:18.603Z,14.5
2016-08-15T00:02:28.611Z,14.5
2016-08-15T00:02:39.370Z,14.5
2016-08-15T00:02:48.626Z,14.4
2016-08-15T00:02:58.630Z,14.4
2016-08-15T00:03:08.638Z,14.4
2016-08-15T00:03:18.645Z,14.5
2016-08-15T00:03:28.650Z,14.4
2016-08-15T00:03:39.410Z,14.4
2016-08-15T00:03:48.662Z,14.4
2016-08-15T00:03:58.671Z,14.4
2016-08-15T00:04:08.699Z,14.5
2016-08-15T00:04:18.683Z,14.4
2016-08-15T00:04:28.694Z,14.4
2016-08-15T00:04:38.700Z,14.5
2016-08-15T00:04:48.702Z,14.4
2016-08-15T00:04:58.710Z,14.4
2016-08-15T00:05:08.715Z,14.4
2016-08-15T00:05:18.724Z,14.5
2016-08-15T00:05:28.730Z,14.5
2016-08-15T00:05:38.737Z,14.4
2016-08-15T00:05:48.740Z,14.5
2016-08-15T00:05:58.750Z,14.4
2016-08-15T00:06:08.756Z,14.5
2016-08-15T00:06:18.763Z,14.4
2016-08-15T00:06:28.770Z,14.4
2016-08-15T00:06:38.774Z,14.4
2016-08-15T00:06:48.782Z,14.4
2016-08-15T00:06:59.542Z,14.4
2016-08-15T00:07:08.797Z,14.5
2016-08-15T00:07:18.813Z,14.5
2016-08-15T00:07:28.807Z,14.5
2016-08-15T00:07:38.828Z,14.4
2016-08-15T00:07:49.574Z,14.5
2016-08-15T00:07:58.834Z,14.4
2016-08-15T00:08:08.835Z,14.4
2016-08-15T00:08:18.842Z,14.4
2016-08-15T00:08:28.849Z,14.4
2016-08-15T00:08:38.855Z,14.4
2016-08-15T00:08:48.865Z,14.4
2016-08-15T00:08:58.867Z,14.4
2016-08-15T00:09:08.873Z,14.4
2016-08-15T00:09:18.885Z,14.4
2016-08-15T00:09:28.891Z,14.5
2016-08-15T00:09:38.893Z,14.4
2016-08-15T00:09:48.901Z,14.3
2016-08-15T00:09:58.908Z,14.4
2016-08-15T00:10:08.915Z,14.5
2016-08-15T00:10:18.921Z,14.4
2016-08-15T00:10:28.925Z,14.4
2016-08-15T00:10:38.938Z,14.4
2016-08-15T00:10:48.942Z,14.4
2016-08-15T00:10:58.947Z,14.3
2016-08-15T00:11:08.953Z,14.4
2016-08-15T00:11:18.962Z,14.4
2016-08-15T00:11:29.720Z,14.4
2016-08-15T00:11:38.974Z,14.4
2016-08-15T00:11:48.983Z,14.4
2016-08-15T00:11:58.986Z,14.3
2016-08-15T00:12:08.997Z,14.3
2016-08-15T00:12:19.000Z,14.4
2016-08-15T00:12:29.760Z,14.5
2016-08-15T00:12:39.766Z,14.3
2016-08-15T00:12:49.020Z,14.3
2016-08-15T00:12:59.028Z,14.4
2016-08-15T00:13:09.036Z,14.3
2016-08-15T00:13:19.048Z,14.3
2016-08-15T00:13:29.052Z,14.3
2016-08-15T00:13:39.053Z,14.4
2016-08-15T00:13:49.058Z,14.4
2016-08-15T00:13:59.819Z,14.4
2016-08-15T00:14:09.071Z,14.4
2016-08-15T00:14:19.079Z,14.4
2016-08-15T00:14:29.838Z,14.4
2016-08-15T00:14:39.093Z,14.4
2016-08-15T00:14:49.100Z,14.4
2016-08-15T00:14:59.103Z,14.4
2016-08-15T00:15:09.123Z,14.4
2016-08-15T00:15:19.123Z,14.4
2016-08-15T00:15:29.124Z,14.3
2016-08-15T00:15:39.129Z,14.3
2016-08-15T00:15:49.142Z,14.4
2016-08-15T00:15:59.145Z,14.4
2016-08-15T00:16:09.153Z,14.4
2016-08-15T00:16:19.159Z,14.4
2016-08-15T00:16:29.161Z,14.4
2016-08-15T00:16:39.172Z,14.4
2016-08-15T00:16:49.177Z,14.4
2016-08-15T00:16:59.938Z,14.4
2016-08-15T00:17:09.192Z,14.5
2016-08-15T00:17:19.196Z,14.4
2016-08-15T00:17:29.203Z,14.4
2016-08-15T00:17:39.963Z,14.4
2016-08-15T00:17:49.218Z,14.5
2016-08-15T00:17:59.977Z,14.5
2016-08-15T00:18:09.982Z,14.4
2016-08-15T00:18:19.237Z,14.4
2016-08-15T00:18:29.243Z,14.4
2016-08-15T00:18:39.249Z,14.4
2016-08-15T00:18:49.255Z,14.4
2016-08-15T00:18:59.262Z,14.4
2016-08-15T00:19:09.271Z,14.4
2016-08-15T00:19:19.285Z,14.4
2016-08-15T00:19:29.285Z,14.4
2016-08-15T00:19:39.290Z,14.4
2016-08-15T00:19:49.299Z,14.4
2016-08-15T00:19:59.309Z,14.4
2016-08-15T00:20:09.309Z,14.4
2016-08-15T00:20:19.316Z,14.4
2016-08-15T00:20:29.324Z,14.5
2016-08-15T00:20:39.337Z,14.4
2016-08-15T00:20:49.337Z,14.4
2016-08-15T00:20:59.342Z,14.4
2016-08-15T00:21:09.354Z,14.4
2016-08-15T00:21:19.356Z,14.4
2016-08-15T00:21:29.361Z,14.4
2016-08-15T00:21:39.366Z,14.4
2016-08-15T00:21:50.128Z,14.4
2016-08-15T00:21:59.383Z,14.4
2016-08-15T00:22:09.387Z,14.4
2016-08-15T00:22:19.392Z,14.4
2016-08-15T00:22:29.401Z,14.4
2016-08-15T00:22:39.406Z,14.4
2016-08-15T00:22:49.415Z,14.3
2016-08-15T00:22:59.418Z,14.4
2016-08-15T00:23:09.427Z,14.3
2016-08-15T00:23:19.439Z,14.4
2016-08-15T00:23:29.440Z,14.4
2016-08-15T00:23:39.451Z,14.4
2016-08-15T00:23:49.452Z,14.4
2016-08-15T00:23:59.563Z,14.4
2016-08-15T00:24:09.474Z,14.4
2016-08-15T00:24:19.473Z,14.4
2016-08-15T00:24:29.481Z,14.4
2016-08-15T00:24:39.485Z,14.4
2016-08-15T00:24:49.492Z,14.4
2016-08-15T00:24:59.501Z,14.4
2016-08-15T00:25:10.259Z,14.4
2016-08-15T00:25:19.521Z,14.4
2016-08-15T00:25:30.272Z,14.4
2016-08-15T00:25:39.524Z,14.4
2016-08-15T00:25:49.533Z,14.4
2016-08-15T00:25:59.541Z,14.4
2016-08-15T00:26:10.376Z,14.5
2016-08-15T00:26:21.077Z,14.4
2016-08-15T00:26:30.331Z,14.4
2016-08-15T00:26:40.337Z,14.5
2016-08-15T00:26:50.351Z,14.4
2016-08-15T00:27:00.350Z,14.5
2016-08-15T00:27:10.356Z,14.5
2016-08-15T00:27:20.372Z,14.4
2016-08-15T00:27:30.372Z,14.5
2016-08-15T00:27:40.378Z,14.6
2016-08-15T00:27:50.384Z,14.5
2016-08-15T00:28:00.392Z,14.6
2016-08-15T00:28:10.397Z,14.5
2016-08-15T00:28:21.156Z,14.5
2016-08-15T00:28:30.420Z,14.5
2016-08-15T00:28:40.414Z,14.5
2016-08-15T00:28:50.423Z,14.6
2016-08-15T00:29:00.431Z,14.6
2016-08-15T00:29:10.434Z,14.5
2016-08-15T00:29:20.442Z,14.6
2016-08-15T00:29:30.450Z,14.7
2016-08-15T00:29:40.456Z,14.6
2016-08-15T00:29:50.467Z,14.6
2016-08-15T00:30:00.469Z,14.7
2016-08-15T00:30:10.474Z,14.6
2016-08-15T00:30:21.238Z,14.7
2016-08-15T00:30:31.243Z,14.7
2016-08-15T00:30:40.495Z,14.6
2016-08-15T00:30:50.504Z,14.6
2016-08-15T00:31:01.261Z,14.7
2016-08-15T00:31:10.521Z,14.7
2016-08-15T00:31:21.273Z,14.6
2016-08-15T00:31:30.527Z,14.7
2016-08-15T00:31:41.288Z,14.7
2016-08-15T00:31:50.551Z,14.7
2016-08-15T00:32:01.301Z,14.8
2016-08-15T00:32:10.562Z,14.8
2016-08-15T00:32:20.563Z,14.8
2016-08-15T00:32:30.566Z,14.9
2016-08-15T00:32:40.574Z,14.9
2016-08-15T00:32:50.581Z,14.9
2016-08-15T00:33:00.586Z,14.9
2016-08-15T00:33:10.594Z,14.8
2016-08-15T00:33:20.601Z,14.9
2016-08-15T00:33:31.363Z,14.9
2016-08-15T00:33:40.612Z,14.8
2016-08-15T00:33:50.622Z,14.8
2016-08-15T00:34:00.625Z,14.8
2016-08-15T00:34:10.634Z,14.8
2016-08-15T00:34:20.641Z,14.9
2016-08-15T00:34:30.646Z,14.8
2016-08-15T00:34:40.660Z,14.8
2016-08-15T00:34:50.661Z,14.8
2016-08-15T00:35:01.419Z,14.9
2016-08-15T00:35:10.671Z,14.8
2016-08-15T00:35:20.682Z,14.8
2016-08-15T00:35:30.684Z,14.9
2016-08-15T00:35:41.446Z,14.8
2016-08-15T00:35:50.698Z,14.9
2016-08-15T00:36:00.704Z,14.9
2016-08-15T00:36:10.714Z,14.9
2016-08-15T00:36:20.719Z,14.9
2016-08-15T00:36:30.726Z,14.9
2016-08-15T00:36:40.729Z,14.9
2016-08-15T00:36:50.737Z,14.9
2016-08-15T00:37:00.744Z,14.8
2016-08-15T00:37:10.752Z,14.8
2016-08-15T00:37:20.760Z,14.9
2016-08-15T00:37:30.765Z,14.8
2016-08-15T00:37:40.772Z,14.8
2016-08-15T00:37:50.779Z,14.8
2016-08-15T00:38:00.784Z,14.8
2016-08-15T00:38:10.791Z,14.8
2016-08-15T00:38:21.552Z,14.8
2016-08-15T00:38:30.807Z,14.9
2016-08-15T00:38:41.564Z,14.9
2016-08-15T00:38:50.823Z,14.9
2016-08-15T00:39:00.823Z,14.8
2016-08-15T00:39:10.835Z,14.9
2016-08-15T00:39:20.845Z,14.9
2016-08-15T00:39:30.846Z,14.8
2016-08-15T00:39:40.851Z,14.8
2016-08-15T00:39:50.854Z,14.9
2016-08-15T00:40:00.863Z,14.9
2016-08-15T00:40:10.872Z,14.8
2016-08-15T00:40:20.875Z,14.8
2016-08-15T00:40:30.883Z,14.8
2016-08-15T00:40:40.895Z,14.8
2016-08-15T00:40:50.903Z,14.9
2016-08-15T00:41:00.905Z,14.8
2016-08-15T00:41:11.663Z,14.8
2016-08-15T00:41:20.919Z,14.8
2016-08-15T00:41:30.930Z,14.9
2016-08-15T00:41:41.682Z,14.9
2016-08-15T00:41:50.936Z,14.9
2016-08-15T00:42:00.943Z,14.9
2016-08-15T00:42:10.948Z,14.9
2016-08-15T00:42:20.954Z,14.9
2016-08-15T00:42:30.966Z,14.8
2016-08-15T00:42:40.969Z,14.8
2016-08-15T00:42:50.974Z,14.9
2016-08-15T00:43:00.980Z,14.8
2016-08-15T00:43:10.988Z,14.9
2016-08-15T00:43:20.994Z,14.8
2016-08-15T00:43:31.754Z,14.8
2016-08-15T00:43:41.008Z,14.9
2016-08-15T00:43:51.013Z,14.9
2016-08-15T00:44:01.021Z,14.9
2016-08-15T00:44:11.029Z,14.9
2016-08-15T00:44:21.033Z,14.9
2016-08-15T00:44:31.795Z,14.9
2016-08-15T00:44:41.048Z,14.9
2016-08-15T00:44:51.052Z,14.9
2016-08-15T00:45:01.813Z,14.8
2016-08-15T00:45:11.066Z,14.9
2016-08-15T00:45:21.079Z,14.9
2016-08-15T00:45:31.086Z,14.8
2016-08-15T00:45:41.091Z,14.9
2016-08-15T00:45:51.097Z,14.9
2016-08-15T00:46:01.100Z,14.9
2016-08-15T00:46:11.113Z,14.9
2016-08-15T00:46:21.114Z,14.9
2016-08-15T00:46:31.119Z,15
2016-08-15T00:46:41.125Z,14.9
2016-08-15T00:46:51.132Z,14.9
2016-08-15T00:47:01.144Z,14.9
2016-08-15T00:47:11.151Z,14.9
2016-08-15T00:47:21.152Z,14.9
2016-08-15T00:47:31.160Z,14.9
2016-08-15T00:47:41.166Z,14.9
2016-08-15T00:47:51.175Z,14.9
2016-08-15T00:48:01.180Z,14.9
2016-08-15T00:48:11.185Z,14.9
2016-08-15T00:48:21.191Z,14.9
2016-08-15T00:48:31.210Z,14.9
2016-08-15T00:48:41.958Z,14.9
2016-08-15T00:48:51.212Z,14.9
2016-08-15T00:49:01.220Z,14.9
2016-08-15T00:49:11.224Z,14.9
2016-08-15T00:49:21.233Z,14.9
2016-08-15T00:49:31.239Z,14.9
2016-08-15T00:49:41.243Z,15
2016-08-15T00:49:51.254Z,15
2016-08-15T00:50:01.260Z,15
2016-08-15T00:50:11.265Z,14.9
2016-08-15T00:50:21.273Z,14.8
2016-08-15T00:50:31.279Z,14.9
2016-08-15T00:50:41.284Z,14.9
2016-08-15T00:50:51.291Z,14.9
2016-08-15T00:51:01.297Z,14.9
2016-08-15T00:51:11.302Z,14.9
2016-08-15T00:51:21.309Z,14.9
2016-08-15T00:51:31.322Z,14.9
2016-08-15T00:51:41.323Z,15
2016-08-15T00:51:51.328Z,15
2016-08-15T00:52:01.338Z,15
2016-08-15T00:52:11.351Z,15
2016-08-15T00:52:21.351Z,15
2016-08-15T00:52:31.357Z,15
2016-08-15T00:52:41.361Z,15
2016-08-15T00:52:51.369Z,14.9
2016-08-15T00:53:02.132Z,14.9
2016-08-15T00:53:11.383Z,14.9
2016-08-15T00:53:21.390Z,14.9
2016-08-15T00:53:31.398Z,15
2016-08-15T00:53:41.402Z,14.9
2016-08-15T00:53:52.167Z,14.9
2016-08-15T00:54:01.415Z,15
2016-08-15T00:54:11.429Z,15
2016-08-15T00:54:21.428Z,15
2016-08-15T00:54:31.437Z,14.9
2016-08-15T00:54:42.195Z,14.9
2016-08-15T00:54:51.449Z,15
2016-08-15T00:55:01.456Z,15
2016-08-15T00:55:11.466Z,14.9
2016-08-15T00:55:21.468Z,14.9
2016-08-15T00:55:31.473Z,14.9
2016-08-15T00:55:41.480Z,14.9
2016-08-15T00:55:51.487Z,15
2016-08-15T00:56:01.495Z,15
2016-08-15T00:56:12.255Z,15
2016-08-15T00:56:21.506Z,15
2016-08-15T00:56:31.521Z,15
2016-08-15T00:56:41.526Z,14.9
2016-08-15T00:56:51.529Z,15
2016-08-15T00:57:01.534Z,14.9
2016-08-15T00:57:11.546Z,15
2016-08-15T00:57:21.552Z,15
2016-08-15T00:57:31.554Z,15
2016-08-15T00:57:41.561Z,15.1
2016-08-15T00:57:51.566Z,15
2016-08-15T00:58:01.575Z,15
2016-08-15T00:58:11.582Z,14.9
2016-08-15T00:58:21.586Z,15
2016-08-15T00:58:31.595Z,15
2016-08-15T00:58:41.600Z,15.1
2016-08-15T00:58:51.606Z,15.1
2016-08-15T00:59:01.615Z,15.1
2016-08-15T00:59:11.621Z,15.1
2016-08-15T00:59:21.637Z,15
2016-08-15T00:59:31.632Z,15.1
2016-08-15T00:59:41.639Z,15.1
2016-08-15T00:59:51.647Z,15.1
2016-08-15T01:00:01.655Z,15.1
2016-08-15T01:00:11.660Z,15.1
2016-08-15T01:00:21.665Z,15.1
2016-08-15T01:00:31.674Z,15.1
2016-08-15T01:00:42.433Z,15.1
2016-08-15T01:00:51.689Z,15.2
2016-08-15T01:01:01.696Z,15.1
2016-08-15T01:01:11.699Z,15.1
2016-08-15T01:01:21.706Z,15.2
2016-08-15T01:01:31.713Z,15.1
2016-08-15T01:01:41.721Z,15.2
2016-08-15T01:01:51.734Z,15.2
2016-08-15T01:02:01.733Z,15.2
2016-08-15T01:02:11.740Z,15.2
2016-08-15T01:02:21.747Z,15.2
2016-08-15T01:02:31.750Z,15.2
2016-08-15T01:02:41.765Z,15.2
2016-08-15T01:02:51.767Z,15.2
2016-08-15T01:03:01.772Z,15.2
2016-08-15T01:03:11.777Z,15.2
2016-08-15T01:03:21.786Z,15.2
2016-08-15T01:03:31.792Z,15.2
2016-08-15T01:03:41.799Z,15.2
2016-08-15T01:03:51.805Z,15.3
2016-08-15T01:04:01.815Z,15.2
2016-08-15T01:04:11.818Z,15.3
2016-08-15T01:04:21.838Z,15.2
2016-08-15T01:04:31.839Z,15.2
2016-08-15T01:04:41.836Z,15.2
2016-08-15T01:04:52.599Z,15.2
2016-08-15T01:05:01.852Z,15.2
2016-08-15T01:05:11.857Z,15.2
2016-08-15T01:05:22.617Z,15.3
2016-08-15T01:05:31.870Z,15.2
2016-08-15T01:05:41.878Z,15.2
2016-08-15T01:05:51.885Z,15.3
2016-08-15T01:06:01.899Z,15.3
2016-08-15T01:06:11.896Z,15.2
2016-08-15T01:06:21.905Z,15.2
2016-08-15T01:06:31.910Z,15.2
2016-08-15T01:06:41.921Z,15.3
2016-08-15T01:06:51.924Z,15.3
2016-08-15T01:07:01.936Z,15.3
2016-08-15T01:07:11.937Z,15.3
2016-08-15T01:07:22.696Z,15.2
2016-08-15T01:07:31.951Z,15.3
2016-08-15T01:07:41.958Z,15.3
2016-08-15T01:07:51.972Z,15.3
2016-08-15T01:08:01.971Z,15.3
2016-08-15T01:08:11.979Z,15.3
2016-08-15T01:08:21.984Z,15.3
2016-08-15T01:08:31.989Z,15.3
2016-08-15T01:08:41.996Z,15.3
2016-08-15T01:08:52.004Z,15.3
2016-08-15T01:09:02.011Z,15.3
2016-08-15T01:09:12.019Z,15.3
2016-08-15T01:09:22.025Z,15.3
2016-08-15T01:09:32.031Z,15.3
2016-08-15T01:09:42.037Z,15.4
2016-08-15T01:09:52.796Z,15.4
2016-08-15T01:10:02.051Z,15.4
2016-08-15T01:10:12.809Z,15.4
2016-08-15T01:10:22.063Z,15.4
2016-08-15T01:10:32.069Z,15.4
2016-08-15T01:10:42.075Z,15.4
2016-08-15T01:10:52.840Z,15.4
2016-08-15T01:11:02.090Z,15.4
2016-08-15T01:11:12.098Z,15.4
2016-08-15T01:11:22.103Z,15.4
2016-08-15T01:11:32.107Z,15.4
2016-08-15T01:11:42.115Z,15.4
2016-08-15T01:11:52.122Z,15.4
2016-08-15T01:12:02.129Z,15.4
2016-08-15T01:12:12.133Z,15.5
2016-08-15T01:12:22.143Z,15.5
2016-08-15T01:12:32.148Z,15.4
2016-08-15T01:12:42.154Z,15.4
2016-08-15T01:12:52.161Z,15.4
2016-08-15T01:13:02.168Z,15.4
2016-08-15T01:13:12.177Z,15.4
2016-08-15T01:13:22.180Z,15.4
2016-08-15T01:13:32.189Z,15.4
2016-08-15T01:13:42.194Z,15.5
2016-08-15T01:13:52.204Z,15.5
2016-08-15T01:14:02.208Z,15.5
2016-08-15T01:14:12.218Z,15.5
2016-08-15T01:14:22.221Z,15.5
2016-08-15T01:14:32.231Z,15.6
2016-08-15T01:14:42.243Z,15.5
2016-08-15T01:14:52.995Z,15.5
2016-08-15T01:15:02.250Z,15.5
2016-08-15T01:15:12.254Z,15.5
2016-08-15T01:15:22.261Z,15.6
2016-08-15T01:15:32.268Z,15.6
2016-08-15T01:15:42.275Z,15.5
2016-08-15T01:15:52.280Z,15.5
2016-08-15T01:16:02.286Z,15.5
2016-08-15T01:16:12.295Z,15.5
2016-08-15T01:16:22.302Z,15.5
2016-08-15T01:16:32.308Z,15.6
2016-08-15T01:16:42.313Z,15.6
2016-08-15T01:16:52.320Z,15.5
2016-08-15T01:17:02.327Z,15.6
2016-08-15T01:17:12.335Z,15.5
2016-08-15T01:17:22.342Z,15.5
2016-08-15T01:17:32.345Z,15.6
2016-08-15T01:17:42.353Z,15.6
2016-08-15T01:17:52.362Z,15.5
2016-08-15T01:18:02.367Z,15.6
2016-08-15T01:18:12.371Z,15.6
2016-08-15T01:18:22.381Z,15.6
2016-08-15T01:18:33.139Z,15.5
2016-08-15T01:18:42.395Z,15.6
2016-08-15T01:18:53.154Z,15.6
2016-08-15T01:19:02.406Z,15.6
2016-08-15T01:19:12.415Z,15.5
2016-08-15T01:19:22.419Z,15.7
2016-08-15T01:19:32.439Z,15.6
2016-08-15T01:19:42.433Z,15.6
2016-08-15T01:19:52.439Z,15.6
2016-08-15T01:20:02.446Z,15.6
2016-08-15T01:20:12.452Z,15.5
2016-08-15T01:20:22.460Z,15.6
2016-08-15T01:20:32.466Z,15.6
2016-08-15T01:20:42.472Z,15.6
2016-08-15T01:20:52.479Z,15.6
2016-08-15T01:21:02.488Z,15.5
2016-08-15T01:21:12.493Z,15.6
2016-08-15T01:21:22.500Z,15.7
2016-08-15T01:21:32.505Z,15.7
2016-08-15T01:21:42.514Z,15.6
2016-08-15T01:21:52.525Z,15.6
2016-08-15T01:22:02.528Z,15.6
2016-08-15T01:22:12.535Z,15.6
2016-08-15T01:22:23.293Z,15.6
2016-08-15T01:22:32.546Z,15.5
2016-08-15T01:22:42.553Z,15.6
2016-08-15T01:22:52.560Z,15.5
2016-08-15T01:23:02.564Z,15.6
2016-08-15T01:23:12.575Z,15.6
2016-08-15T01:23:22.577Z,15.8
2016-08-15T01:23:32.584Z,15.6
2016-08-15T01:23:42.592Z,15.7
2016-08-15T01:23:52.598Z,15.7
2016-08-15T01:24:02.607Z,15.7
2016-08-15T01:24:12.613Z,15.7
2016-08-15T01:24:22.617Z,15.8
2016-08-15T01:24:32.624Z,15.8
2016-08-15T01:24:42.631Z,15.7
2016-08-15T01:24:52.639Z,15.7
2016-08-15T01:25:02.646Z,15.7
2016-08-15T01:25:12.652Z,15.7
2016-08-15T01:25:22.660Z,15.7
2016-08-15T01:25:32.666Z,15.7
2016-08-15T01:25:42.672Z,15.8
2016-08-15T01:25:52.678Z,15.7
2016-08-15T01:26:02.686Z,15.8
2016-08-15T01:26:13.446Z,15.8
2016-08-15T01:26:23.451Z,15.8
2016-08-15T01:26:32.703Z,15.7
2016-08-15T01:26:42.713Z,15.8
2016-08-15T01:26:52.720Z,15.8
2016-08-15T01:27:02.726Z,15.7
2016-08-15T01:27:12.744Z,15.8
2016-08-15T01:27:22.737Z,15.7
2016-08-15T01:27:32.744Z,15.7
2016-08-15T01:27:42.751Z,15.8
2016-08-15T01:27:53.520Z,15.7
2016-08-15T01:28:02.767Z,15.8
2016-08-15T01:28:12.773Z,15.8
2016-08-15T01:28:22.790Z,15.8
2016-08-15T01:28:32.786Z,15.8
2016-08-15T01:28:43.543Z,15.8
2016-08-15T01:28:53.550Z,15.7
2016-08-15T01:29:02.803Z,15.7
2016-08-15T01:29:12.811Z,15.7
2016-08-15T01:29:22.818Z,15.7
2016-08-15T01:29:32.822Z,15.7
2016-08-15T01:29:42.845Z,15.8
2016-08-15T01:29:53.592Z,15.8
2016-08-15T01:30:02.845Z,15.7
2016-08-15T01:30:12.851Z,15.7
2016-08-15T01:30:22.856Z,15.7
2016-08-15T01:30:32.862Z,15.8
2016-08-15T01:30:42.874Z,15.7
2016-08-15T01:30:52.881Z,15.7
2016-08-15T01:31:02.887Z,15.8
2016-08-15T01:31:12.892Z,15.7
2016-08-15T01:31:22.910Z,15.8
2016-08-15T01:31:32.903Z,15.7
2016-08-15T01:31:42.913Z,15.7
2016-08-15T01:31:52.915Z,15.8
2016-08-15T01:32:03.676Z,15.8
2016-08-15T01:32:12.930Z,15.7
2016-08-15T01:32:23.691Z,15.8
2016-08-15T01:32:32.947Z,15.8
2016-08-15T01:32:42.950Z,15.7
2016-08-15T01:32:52.955Z,15.7
2016-08-15T01:33:03.717Z,15.8
2016-08-15T01:33:12.968Z,15.8
2016-08-15T01:33:23.730Z,15.7
2016-08-15T01:33:33.740Z,15.8
2016-08-15T01:33:42.990Z,15.7
2016-08-15T01:33:52.996Z,15.7
2016-08-15T01:34:03.001Z,15.8
2016-08-15T01:34:13.015Z,15.7
2016-08-15T01:34:23.772Z,15.7
2016-08-15T01:34:33.022Z,15.7
2016-08-15T01:34:43.029Z,15.8
2016-08-15T01:34:53.038Z,15.8
2016-08-15T01:35:03.044Z,15.7
2016-08-15T01:35:13.050Z,15.7
2016-08-15T01:35:23.057Z,15.8
2016-08-15T01:35:33.060Z,15.8
2016-08-15T01:35:43.075Z,15.7
2016-08-15T01:35:53.076Z,15.7
2016-08-15T01:36:03.084Z,15.7
2016-08-15T01:36:13.093Z,15.8
2016-08-15T01:36:23.096Z,15.8
2016-08-15T01:36:33.107Z,15.8
2016-08-15T01:36:43.863Z,15.8
2016-08-15T01:36:53.870Z,15.9
2016-08-15T01:37:03.121Z,15.8
2016-08-15T01:37:13.138Z,15.8
2016-08-15T01:37:23.136Z,15.9
2016-08-15T01:37:33.144Z,15.8
2016-08-15T01:37:43.150Z,15.7
2016-08-15T01:37:53.155Z,15.8
2016-08-15T01:38:03.163Z,15.8
2016-08-15T01:38:13.170Z,15.7
2016-08-15T01:38:23.177Z,15.8
2016-08-15T01:38:33.186Z,15.7
2016-08-15T01:38:43.188Z,15.8
2016-08-15T01:38:53.196Z,15.8
2016-08-15T01:39:03.206Z,15.8
2016-08-15T01:39:13.208Z,15.8
2016-08-15T01:39:23.217Z,15.8
2016-08-15T01:39:33.225Z,15.8
2016-08-15T01:39:43.982Z,15.7
2016-08-15T01:39:53.235Z,15.8
2016-08-15T01:40:03.995Z,15.7
2016-08-15T01:40:13.252Z,15.8
2016-08-15T01:40:23.256Z,15.8
2016-08-15T01:40:33.262Z,15.8
2016-08-15T01:40:43.267Z,15.8
2016-08-15T01:40:53.274Z,15.7
2016-08-15T01:41:03.282Z,15.8
2016-08-15T01:41:13.291Z,15.8
2016-08-15T01:41:23.296Z,15.8
2016-08-15T01:41:33.302Z,15.7
2016-08-15T01:41:43.309Z,15.8
2016-08-15T01:41:53.315Z,15.8
2016-08-15T01:42:03.322Z,15.8
2016-08-15T01:42:13.330Z,15.8
2016-08-15T01:42:23.333Z,15.7
2016-08-15T01:42:33.344Z,15.7
2016-08-15T01:42:43.350Z,15.7
2016-08-15T01:42:53.355Z,15.8
2016-08-15T01:43:03.359Z,15.8
2016-08-15T01:43:13.370Z,15.8
2016-08-15T01:43:23.373Z,15.7
2016-08-15T01:43:33.381Z,15.7
2016-08-15T01:43:43.396Z,15.7
2016-08-15T01:43:53.392Z,15.7
2016-08-15T01:44:03.400Z,15.6
2016-08-15T01:44:13.410Z,15.6
2016-08-15T01:44:24.168Z,15.8
2016-08-15T01:44:33.420Z,15.7
2016-08-15T01:44:43.434Z,15.7
2016-08-15T01:44:53.434Z,15.7
2016-08-15T01:45:03.444Z,15.7
2016-08-15T01:45:13.449Z,15.8
2016-08-15T01:45:23.453Z,15.8
2016-08-15T01:45:33.460Z,15.8
2016-08-15T01:45:43.468Z,15.8
2016-08-15T01:45:54.229Z,15.7
2016-08-15T01:46:03.480Z,15.7
2016-08-15T01:46:13.487Z,15.8
2016-08-15T01:46:23.495Z,15.7
2016-08-15T01:46:33.501Z,15.7
2016-08-15T01:46:43.508Z,15.8
2016-08-15T01:46:53.519Z,15.7
2016-08-15T01:47:03.528Z,15.8
2016-08-15T01:47:13.528Z,15.7
2016-08-15T01:47:23.534Z,15.7
2016-08-15T01:47:33.540Z,15.8
2016-08-15T01:47:43.549Z,15.8
2016-08-15T01:47:53.559Z,15.8
2016-08-15T01:48:03.562Z,15.8
2016-08-15T01:48:13.569Z,15.7
2016-08-15T01:48:23.572Z,15.8
2016-08-15T01:48:34.336Z,15.8
2016-08-15T01:48:43.592Z,15.7
2016-08-15T01:48:53.592Z,15.7
2016-08-15T01:49:03.606Z,15.8
2016-08-15T01:49:13.607Z,15.8
2016-08-15T01:49:24.367Z,15.8
2016-08-15T01:49:33.621Z,15.7
2016-08-15T01:49:43.629Z,15.8
2016-08-15T01:49:54.387Z,15.8
2016-08-15T01:50:03.640Z,15.7
2016-08-15T01:50:13.648Z,15.8
2016-08-15T01:50:23.654Z,15.7
2016-08-15T01:50:33.660Z,15.8
2016-08-15T01:50:43.667Z,15.7
2016-08-15T01:50:54.433Z,15.7
2016-08-15T01:51:03.682Z,15.8
2016-08-15T01:51:13.687Z,15.7
2016-08-15T01:51:23.692Z,15.7
2016-08-15T01:51:33.701Z,15.7
2016-08-15T01:51:43.707Z,15.7
2016-08-15T01:51:53.713Z,15.8
2016-08-15T01:52:03.720Z,15.7
2016-08-15T01:52:13.728Z,15.8
2016-08-15T01:52:24.486Z,15.8
2016-08-15T01:52:33.741Z,15.8
2016-08-15T01:52:43.747Z,15.8
2016-08-15T01:52:53.752Z,15.8
2016-08-15T01:53:03.759Z,15.7
2016-08-15T01:53:13.768Z,15.8
2016-08-15T01:53:23.773Z,15.7
2016-08-15T01:53:34.535Z,15.8
2016-08-15T01:53:43.788Z,15.8
2016-08-15T01:53:53.794Z,15.7
2016-08-15T01:54:03.802Z,15.8
2016-08-15T01:54:13.808Z,15.8
2016-08-15T01:54:23.817Z,15.8
2016-08-15T01:54:34.572Z,15.8
2016-08-15T01:54:44.580Z,15.7
2016-08-15T01:54:53.834Z,15.7
2016-08-15T01:55:03.839Z,15.8
2016-08-15T01:55:13.847Z,15.7
2016-08-15T01:55:23.855Z,15.8
2016-08-15T01:55:33.859Z,15.8
2016-08-15T01:55:43.867Z,15.8
2016-08-15T01:55:54.625Z,15.8
2016-08-15T01:56:03.879Z,15.8
2016-08-15T01:56:13.887Z,15.7
2016-08-15T01:56:23.899Z,15.7
2016-08-15T01:56:33.900Z,15.8
2016-08-15T01:56:43.905Z,15.8
2016-08-15T01:56:54.666Z,15.8
2016-08-15T01:57:04.673Z,15.8
2016-08-15T01:57:13.927Z,15.8
2016-08-15T01:57:23.932Z,15.8
2016-08-15T01:57:33.945Z,15.7
2016-08-15T01:57:43.946Z,15.8
2016-08-15T01:57:54.706Z,15.8
2016-08-15T01:58:03.956Z,15.7
2016-08-15T01:58:13.967Z,15.7
2016-08-15T01:58:23.974Z,15.8
2016-08-15T01:58:33.980Z,15.7
2016-08-15T01:58:43.986Z,15.8
2016-08-15T01:58:53.992Z,15.8
2016-08-15T01:59:03.999Z,15.7
2016-08-15T01:59:14.006Z,15.8
2016-08-15T01:59:24.765Z,15.7
2016-08-15T01:59:34.018Z,15.8
2016-08-15T01:59:44.026Z,15.7
2016-08-15T01:59:54.032Z,15.7
2016-08-15T02:00:04.041Z,15.7
2016-08-15T02:00:14.047Z,15.7
2016-08-15T02:00:24.056Z,15.8
2016-08-15T02:00:34.060Z,15.7
2016-08-15T02:00:44.065Z,15.7
2016-08-15T02:00:54.073Z,15.7
2016-08-15T02:01:04.079Z,15.7
2016-08-15T02:01:14.085Z,15.7
2016-08-15T02:01:24.093Z,15.7
2016-08-15T02:01:34.102Z,15.7
2016-08-15T02:01:44.105Z,15.7
2016-08-15T02:01:54.864Z,15.7
2016-08-15T02:02:04.117Z,15.7
2016-08-15T02:02:14.131Z,15.7
2016-08-15T02:02:24.133Z,15.7
2016-08-15T02:02:34.137Z,15.7
2016-08-15T02:02:44.900Z,15.7
2016-08-15T02:02:54.152Z,15.7
2016-08-15T02:03:04.160Z,15.7
2016-08-15T02:03:14.166Z,15.8
2016-08-15T02:03:24.171Z,15.7
2016-08-15T02:03:34.179Z,15.7
2016-08-15T02:03:44.187Z,15.8
2016-08-15T02:03:54.190Z,15.7
2016-08-15T02:04:04.203Z,15.7
2016-08-15T02:04:14.959Z,15.7
2016-08-15T02:04:24.210Z,15.7
2016-08-15T02:04:34.972Z,15.7
2016-08-15T02:04:44.978Z,15.7
2016-08-15T02:04:54.231Z,15.7
2016-08-15T02:05:04.238Z,15.7
2016-08-15T02:05:14.246Z,15.7
2016-08-15T02:05:24.251Z,15.8
2016-08-15T02:05:34.259Z,15.8
2016-08-15T02:05:44.265Z,15.7
2016-08-15T02:05:54.271Z,15.8
2016-08-15T02:06:04.294Z,15.8
2016-08-15T02:06:14.288Z,15.8
2016-08-15T02:06:24.290Z,15.8
2016-08-15T02:06:34.298Z,15.8
2016-08-15T02:06:44.303Z,15.8
2016-08-15T02:06:54.313Z,15.8
2016-08-15T02:07:04.319Z,15.8
2016-08-15T02:07:14.324Z,15.8
2016-08-15T02:07:24.331Z,15.8
2016-08-15T02:07:34.338Z,15.7
2016-08-15T02:07:45.099Z,15.8
2016-08-15T02:07:54.351Z,15.8
2016-08-15T02:08:04.358Z,15.8
2016-08-15T02:08:14.363Z,15.8
2016-08-15T02:08:24.371Z,15.8
2016-08-15T02:08:34.379Z,15.7
2016-08-15T02:08:44.384Z,15.8
2016-08-15T02:08:54.393Z,15.7
2016-08-15T02:09:04.405Z,15.8
2016-08-15T02:09:14.407Z,15.8
2016-08-15T02:09:24.424Z,15.8
2016-08-15T02:09:34.419Z,15.7
2016-08-15T02:09:45.176Z,15.7
2016-08-15T02:09:54.434Z,15.7
2016-08-15T02:10:04.438Z,15.7
2016-08-15T02:10:14.444Z,15.8
2016-08-15T02:10:24.453Z,15.8
2016-08-15T02:10:34.458Z,15.8
2016-08-15T02:10:44.468Z,15.8
2016-08-15T02:10:54.470Z,15.7
2016-08-15T02:11:04.477Z,15.7
2016-08-15T02:11:14.483Z,15.8
2016-08-15T02:11:25.245Z,15.8
2016-08-15T02:11:34.498Z,15.8
2016-08-15T02:11:44.503Z,15.7
2016-08-15T02:11:54.511Z,15.8
2016-08-15T02:12:04.521Z,15.8
2016-08-15T02:12:14.527Z,15.8
2016-08-15T02:12:24.530Z,15.7
2016-08-15T02:12:34.542Z,15.8
2016-08-15T02:12:44.555Z,15.7
2016-08-15T02:12:54.551Z,15.8
2016-08-15T02:13:05.311Z,15.8
2016-08-15T02:13:14.564Z,15.8
2016-08-15T02:13:24.570Z,15.8
2016-08-15T02:13:34.578Z,15.8